sensor_id;sensor_type;location;lat;lon;timestamp;P1;durP1;ratioP1;P2;durP2;ratioP2
26690;SDS011;14307;51.718;8.938;2022-08-07T00:00:23;11.02;;;10.18;;
26690;SDS011;14307;51.718;8.938;2022-08-07T00:02:51;11.30;;;10.52;;
26690;SDS011;14307;51.718;8.938;2022-08-07T00:05:19;11.65;;;10.90;;
26690;SDS011;14307;51.718;8.938;2022-08-07T00:07:49;11.13;;;10.32;;
26690;SDS011;14307;51.718;8.938;2022-08-07T00:10:26;10.18;;;9.68;;
26690;SDS011;14307;51.718;8.938;2022-08-07T00:12:57;11.25;;;10.43;;
26690;SDS011;14307;51.718;8.938;2022-08-07T00:15:47;10.80;;;10.20;;
26690;SDS011;14307;51.718;8.938;2022-08-07T00:18:18;11.40;;;10.57;;
26690;SDS011;14307;51.718;8.938;2022-08-07T00:20:51;10.18;;;9.27;;
26690;SDS011;14307;51.718;8.938;2022-08-07T00:23:27;9.48;;;8.88;;
26690;SDS011;14307;51.718;8.938;2022-08-07T00:25:55;9.50;;;9.00;;
26690;SDS011;14307;51.718;8.938;2022-08-07T00:28:28;9.93;;;9.02;;
26690;SDS011;14307;51.718;8.938;2022-08-07T00:31:03;9.23;;;8.52;;
26690;SDS011;14307;51.718;8.938;2022-08-07T00:33:41;8.80;;;8.27;;
26690;SDS011;14307;51.718;8.938;2022-08-07T00:36:12;9.65;;;9.05;;
26690;SDS011;14307;51.718;8.938;2022-08-07T00:38:42;9.90;;;9.20;;
26690;SDS011;14307;51.718;8.938;2022-08-07T00:41:09;9.82;;;9.27;;
26690;SDS011;14307;51.718;8.938;2022-08-07T00:43:41;9.65;;;9.05;;
26690;SDS011;14307;51.718;8.938;2022-08-07T00:46:28;10.20;;;9.50;;
26690;SDS011;14307;51.718;8.938;2022-08-07T00:48:58;10.60;;;9.90;;
26690;SDS011;14307;51.718;8.938;2022-08-07T00:51:28;10.13;;;9.55;;
26690;SDS011;14307;51.718;8.938;2022-08-07T00:54:16;10.45;;;9.65;;
26690;SDS011;14307;51.718;8.938;2022-08-07T00:56:46;10.25;;;9.65;;
26690;SDS011;14307;51.718;8.938;2022-08-07T00:59:16;10.48;;;9.77;;
26690;SDS011;14307;51.718;8.938;2022-08-07T01:01:57;11.05;;;10.20;;
26690;SDS011;14307;51.718;8.938;2022-08-07T01:04:26;10.80;;;9.93;;
26690;SDS011;14307;51.718;8.938;2022-08-07T01:06:55;10.52;;;9.93;;
26690;SDS011;14307;51.718;8.938;2022-08-07T01:09:22;11.48;;;10.68;;
26690;SDS011;14307;51.718;8.938;2022-08-07T01:12:10;10.93;;;10.05;;
26690;SDS011;14307;51.718;8.938;2022-08-07T01:14:56;10.23;;;9.63;;
26690;SDS011;14307;51.718;8.938;2022-08-07T01:17:29;9.88;;;9.02;;
26690;SDS011;14307;51.718;8.938;2022-08-07T01:20:01;9.52;;;8.82;;
26690;SDS011;14307;51.718;8.938;2022-08-07T01:22:42;10.35;;;9.55;;
26690;SDS011;14307;51.718;8.938;2022-08-07T01:25:32;9.45;;;8.95;;
26690;SDS011;14307;51.718;8.938;2022-08-07T01:28:20;10.73;;;9.95;;
26690;SDS011;14307;51.718;8.938;2022-08-07T01:30:49;11.43;;;10.63;;
26690;SDS011;14307;51.718;8.938;2022-08-07T01:33:20;11.25;;;10.65;;
26690;SDS011;14307;51.718;8.938;2022-08-07T01:35:48;12.27;;;11.38;;
26690;SDS011;14307;51.718;8.938;2022-08-07T01:38:22;11.75;;;10.75;;
26690;SDS011;14307;51.718;8.938;2022-08-07T01:40:57;11.80;;;11.00;;
26690;SDS011;14307;51.718;8.938;2022-08-07T01:43:26;12.25;;;11.52;;
26690;SDS011;14307;51.718;8.938;2022-08-07T01:46:04;11.93;;;11.07;;
26690;SDS011;14307;51.718;8.938;2022-08-07T01:48:39;12.02;;;11.30;;
26690;SDS011;14307;51.718;8.938;2022-08-07T01:51:20;12.02;;;11.30;;
26690;SDS011;14307;51.718;8.938;2022-08-07T01:54:09;11.95;;;11.20;;
26690;SDS011;14307;51.718;8.938;2022-08-07T01:57:09;11.63;;;11.02;;
26690;SDS011;14307;51.718;8.938;2022-08-07T02:00:02;11.63;;;10.70;;
26690;SDS011;14307;51.718;8.938;2022-08-07T02:02:44;11.23;;;10.35;;
26690;SDS011;14307;51.718;8.938;2022-08-07T02:08:28;10.60;;;10.00;;
26690;SDS011;14307;51.718;8.938;2022-08-07T02:10:58;11.48;;;10.57;;
26690;SDS011;14307;51.718;8.938;2022-08-07T02:13:30;12.05;;;11.13;;
26690;SDS011;14307;51.718;8.938;2022-08-07T02:16:23;11.70;;;10.77;;
26690;SDS011;14307;51.718;8.938;2022-08-07T02:18:59;10.63;;;9.93;;
26690;SDS011;14307;51.718;8.938;2022-08-07T02:21:48;11.93;;;10.80;;
26690;SDS011;14307;51.718;8.938;2022-08-07T02:24:22;10.63;;;9.93;;
26690;SDS011;14307;51.718;8.938;2022-08-07T02:26:50;11.40;;;10.50;;
26690;SDS011;14307;51.718;8.938;2022-08-07T02:29:18;11.35;;;10.55;;
26690;SDS011;14307;51.718;8.938;2022-08-07T02:31:48;12.25;;;11.45;;
26690;SDS011;14307;51.718;8.938;2022-08-07T02:34:19;11.55;;;10.75;;
26690;SDS011;14307;51.718;8.938;2022-08-07T02:36:51;12.68;;;10.90;;
26690;SDS011;14307;51.718;8.938;2022-08-07T02:39:18;11.43;;;10.68;;
26690;SDS011;14307;51.718;8.938;2022-08-07T02:42:09;11.68;;;10.80;;
26690;SDS011;14307;51.718;8.938;2022-08-07T02:44:44;13.40;;;12.13;;
26690;SDS011;14307;51.718;8.938;2022-08-07T02:47:19;11.50;;;10.50;;
26690;SDS011;14307;51.718;8.938;2022-08-07T02:49:52;11.15;;;10.30;;
26690;SDS011;14307;51.718;8.938;2022-08-07T02:52:29;12.93;;;11.65;;
26690;SDS011;14307;51.718;8.938;2022-08-07T02:55:02;12.25;;;11.35;;
26690;SDS011;14307;51.718;8.938;2022-08-07T02:57:54;11.35;;;10.45;;
26690;SDS011;14307;51.718;8.938;2022-08-07T03:00:29;11.68;;;10.88;;
26690;SDS011;14307;51.718;8.938;2022-08-07T03:03:01;11.85;;;10.85;;
26690;SDS011;14307;51.718;8.938;2022-08-07T03:05:34;12.00;;;11.20;;
26690;SDS011;14307;51.718;8.938;2022-08-07T03:08:04;12.23;;;11.23;;
26690;SDS011;14307;51.718;8.938;2022-08-07T03:10:39;13.93;;;12.60;;
26690;SDS011;14307;51.718;8.938;2022-08-07T03:13:15;12.88;;;12.00;;
26690;SDS011;14307;51.718;8.938;2022-08-07T03:15:47;12.52;;;11.43;;
26690;SDS011;14307;51.718;8.938;2022-08-07T03:18:26;13.43;;;12.15;;
26690;SDS011;14307;51.718;8.938;2022-08-07T03:21:03;12.82;;;11.73;;
26690;SDS011;14307;51.718;8.938;2022-08-07T03:23:37;11.70;;;10.90;;
26690;SDS011;14307;51.718;8.938;2022-08-07T03:26:29;12.18;;;11.27;;
26690;SDS011;14307;51.718;8.938;2022-08-07T03:29:03;13.05;;;12.15;;
26690;SDS011;14307;51.718;8.938;2022-08-07T03:31:40;12.77;;;11.88;;
26690;SDS011;14307;51.718;8.938;2022-08-07T03:34:13;14.07;;;12.88;;
26690;SDS011;14307;51.718;8.938;2022-08-07T03:36:49;15.15;;;13.68;;
26690;SDS011;14307;51.718;8.938;2022-08-07T03:39:20;15.70;;;14.32;;
26690;SDS011;14307;51.718;8.938;2022-08-07T03:42:11;14.55;;;13.35;;
26690;SDS011;14307;51.718;8.938;2022-08-07T03:44:39;15.98;;;13.30;;
26690;SDS011;14307;51.718;8.938;2022-08-07T03:47:07;14.40;;;13.13;;
26690;SDS011;14307;51.718;8.938;2022-08-07T03:49:44;15.43;;;13.85;;
26690;SDS011;14307;51.718;8.938;2022-08-07T03:52:20;14.25;;;13.18;;
26690;SDS011;14307;51.718;8.938;2022-08-07T03:57:36;14.30;;;13.18;;
26690;SDS011;14307;51.718;8.938;2022-08-07T04:00:28;14.85;;;13.75;;
26690;SDS011;14307;51.718;8.938;2022-08-07T04:03:02;15.55;;;14.27;;
26690;SDS011;14307;51.718;8.938;2022-08-07T04:05:35;15.70;;;14.40;;
26690;SDS011;14307;51.718;8.938;2022-08-07T04:08:15;15.82;;;14.32;;
26690;SDS011;14307;51.718;8.938;2022-08-07T04:10:47;13.43;;;12.35;;
26690;SDS011;14307;51.718;8.938;2022-08-07T04:13:24;13.00;;;11.90;;
26690;SDS011;14307;51.718;8.938;2022-08-07T04:15:53;14.60;;;13.23;;
26690;SDS011;14307;51.718;8.938;2022-08-07T04:18:24;14.02;;;12.57;;
26690;SDS011;14307;51.718;8.938;2022-08-07T04:21:10;18.45;;;13.50;;
26690;SDS011;14307;51.718;8.938;2022-08-07T04:23:42;14.05;;;12.75;;
26690;SDS011;14307;51.718;8.938;2022-08-07T04:26:29;14.00;;;12.80;;
26690;SDS011;14307;51.718;8.938;2022-08-07T04:28:58;14.07;;;12.88;;
26690;SDS011;14307;51.718;8.938;2022-08-07T04:31:25;13.80;;;12.63;;
26690;SDS011;14307;51.718;8.938;2022-08-07T04:34:12;14.43;;;13.15;;
26690;SDS011;14307;51.718;8.938;2022-08-07T04:36:43;13.50;;;12.40;;
26690;SDS011;14307;51.718;8.938;2022-08-07T04:39:14;12.95;;;11.90;;
26690;SDS011;14307;51.718;8.938;2022-08-07T04:41:44;13.57;;;12.57;;
26690;SDS011;14307;51.718;8.938;2022-08-07T04:44:16;13.88;;;12.88;;
26690;SDS011;14307;51.718;8.938;2022-08-07T04:46:48;12.70;;;11.63;;
26690;SDS011;14307;51.718;8.938;2022-08-07T04:50:04;14.43;;;13.40;;
26690;SDS011;14307;51.718;8.938;2022-08-07T04:52:52;13.85;;;12.93;;
26690;SDS011;14307;51.718;8.938;2022-08-07T04:55:41;14.57;;;13.45;;
26690;SDS011;14307;51.718;8.938;2022-08-07T04:58:39;15.75;;;14.45;;
26690;SDS011;14307;51.718;8.938;2022-08-07T05:04:25;14.45;;;13.15;;
26690;SDS011;14307;51.718;8.938;2022-08-07T05:07:17;15.60;;;14.23;;
26690;SDS011;14307;51.718;8.938;2022-08-07T05:10:03;17.27;;;15.45;;
26690;SDS011;14307;51.718;8.938;2022-08-07T05:15:46;15.38;;;13.85;;
26690;SDS011;14307;51.718;8.938;2022-08-07T05:18:28;15.57;;;14.25;;
26690;SDS011;14307;51.718;8.938;2022-08-07T05:20:59;15.15;;;13.75;;
26690;SDS011;14307;51.718;8.938;2022-08-07T05:23:35;15.00;;;13.70;;
26690;SDS011;14307;51.718;8.938;2022-08-07T05:26:04;16.45;;;14.05;;
26690;SDS011;14307;51.718;8.938;2022-08-07T05:28:43;13.98;;;12.73;;
26690;SDS011;14307;51.718;8.938;2022-08-07T05:31:17;14.32;;;13.23;;
26690;SDS011;14307;51.718;8.938;2022-08-07T05:33:49;14.32;;;13.05;;
26690;SDS011;14307;51.718;8.938;2022-08-07T05:36:35;13.68;;;12.48;;
26690;SDS011;14307;51.718;8.938;2022-08-07T05:39:12;14.60;;;13.15;;
26690;SDS011;14307;51.718;8.938;2022-08-07T05:42:03;14.52;;;12.95;;
26690;SDS011;14307;51.718;8.938;2022-08-07T05:44:40;13.80;;;12.75;;
26690;SDS011;14307;51.718;8.938;2022-08-07T05:47:27;14.32;;;13.23;;
26690;SDS011;14307;51.718;8.938;2022-08-07T05:50:15;15.38;;;13.95;;
26690;SDS011;14307;51.718;8.938;2022-08-07T05:52:44;15.00;;;13.80;;
26690;SDS011;14307;51.718;8.938;2022-08-07T05:55:12;16.52;;;14.98;;
26690;SDS011;14307;51.718;8.938;2022-08-07T05:57:43;16.70;;;15.27;;
26690;SDS011;14307;51.718;8.938;2022-08-07T06:00:14;16.85;;;15.63;;
26690;SDS011;14307;51.718;8.938;2022-08-07T06:02:51;16.85;;;15.65;;
26690;SDS011;14307;51.718;8.938;2022-08-07T06:05:22;16.45;;;15.13;;
26690;SDS011;14307;51.718;8.938;2022-08-07T06:07:59;15.30;;;14.20;;
26690;SDS011;14307;51.718;8.938;2022-08-07T06:10:42;16.00;;;14.90;;
26690;SDS011;14307;51.718;8.938;2022-08-07T06:13:11;15.98;;;14.77;;
26690;SDS011;14307;51.718;8.938;2022-08-07T06:15:41;16.55;;;15.55;;
26690;SDS011;14307;51.718;8.938;2022-08-07T06:18:14;18.55;;;17.23;;
26690;SDS011;14307;51.718;8.938;2022-08-07T06:20:44;17.27;;;16.10;;
26690;SDS011;14307;51.718;8.938;2022-08-07T06:23:34;18.20;;;17.10;;
26690;SDS011;14307;51.718;8.938;2022-08-07T06:26:23;20.77;;;19.15;;
26690;SDS011;14307;51.718;8.938;2022-08-07T06:28:54;19.52;;;18.33;;
26690;SDS011;14307;51.718;8.938;2022-08-07T06:31:26;19.40;;;18.02;;
26690;SDS011;14307;51.718;8.938;2022-08-07T06:34:13;19.30;;;18.00;;
26690;SDS011;14307;51.718;8.938;2022-08-07T06:36:40;18.90;;;17.80;;
26690;SDS011;14307;51.718;8.938;2022-08-07T06:39:09;19.88;;;18.75;;
26690;SDS011;14307;51.718;8.938;2022-08-07T06:41:59;19.27;;;18.33;;
26690;SDS011;14307;51.718;8.938;2022-08-07T06:44:54;19.30;;;18.15;;
26690;SDS011;14307;51.718;8.938;2022-08-07T06:47:23;20.15;;;19.00;;
26690;SDS011;14307;51.718;8.938;2022-08-07T06:49:53;19.95;;;18.83;;
26690;SDS011;14307;51.718;8.938;2022-08-07T06:52:33;20.38;;;19.38;;
26690;SDS011;14307;51.718;8.938;2022-08-07T06:55:12;20.50;;;19.17;;
26690;SDS011;14307;51.718;8.938;2022-08-07T07:00:44;20.38;;;19.38;;
26690;SDS011;14307;51.718;8.938;2022-08-07T07:03:11;19.25;;;18.35;;
26690;SDS011;14307;51.718;8.938;2022-08-07T07:05:42;19.60;;;18.65;;
26690;SDS011;14307;51.718;8.938;2022-08-07T07:08:32;19.65;;;18.65;;
26690;SDS011;14307;51.718;8.938;2022-08-07T07:11:00;20.73;;;19.45;;
26690;SDS011;14307;51.718;8.938;2022-08-07T07:13:50;20.67;;;19.67;;
26690;SDS011;14307;51.718;8.938;2022-08-07T07:16:26;19.92;;;18.83;;
26690;SDS011;14307;51.718;8.938;2022-08-07T07:19:10;20.70;;;19.60;;
26690;SDS011;14307;51.718;8.938;2022-08-07T07:22:00;20.02;;;19.02;;
26690;SDS011;14307;51.718;8.938;2022-08-07T07:24:48;19.67;;;18.77;;
26690;SDS011;14307;51.718;8.938;2022-08-07T07:27:28;20.08;;;19.00;;
26690;SDS011;14307;51.718;8.938;2022-08-07T07:30:21;19.83;;;18.83;;
26690;SDS011;14307;51.718;8.938;2022-08-07T07:33:05;19.73;;;18.73;;
26690;SDS011;14307;51.718;8.938;2022-08-07T07:35:37;19.52;;;18.48;;
26690;SDS011;14307;51.718;8.938;2022-08-07T07:38:27;19.92;;;18.77;;
26690;SDS011;14307;51.718;8.938;2022-08-07T07:40:57;19.25;;;18.25;;
26690;SDS011;14307;51.718;8.938;2022-08-07T07:43:29;19.90;;;18.90;;
26690;SDS011;14307;51.718;8.938;2022-08-07T07:46:17;20.27;;;19.38;;
26690;SDS011;14307;51.718;8.938;2022-08-07T07:49:07;20.83;;;19.83;;
26690;SDS011;14307;51.718;8.938;2022-08-07T07:51:56;20.50;;;19.50;;
26690;SDS011;14307;51.718;8.938;2022-08-07T07:54:25;19.63;;;18.73;;
26690;SDS011;14307;51.718;8.938;2022-08-07T07:56:54;20.55;;;19.35;;
26690;SDS011;14307;51.718;8.938;2022-08-07T07:59:23;21.08;;;20.05;;
26690;SDS011;14307;51.718;8.938;2022-08-07T08:02:11;21.08;;;20.00;;
26690;SDS011;14307;51.718;8.938;2022-08-07T08:04:59;22.42;;;21.20;;
26690;SDS011;14307;51.718;8.938;2022-08-07T08:07:40;21.25;;;20.25;;
26690;SDS011;14307;51.718;8.938;2022-08-07T08:10:26;21.58;;;20.40;;
26690;SDS011;14307;51.718;8.938;2022-08-07T08:13:03;22.55;;;21.25;;
26690;SDS011;14307;51.718;8.938;2022-08-07T08:15:37;21.73;;;20.63;;
26690;SDS011;14307;51.718;8.938;2022-08-07T08:18:25;22.73;;;21.40;;
26690;SDS011;14307;51.718;8.938;2022-08-07T08:20:54;22.40;;;21.20;;
26690;SDS011;14307;51.718;8.938;2022-08-07T08:23:27;22.38;;;21.05;;
26690;SDS011;14307;51.718;8.938;2022-08-07T08:26:15;21.58;;;20.35;;
26690;SDS011;14307;51.718;8.938;2022-08-07T08:29:02;21.52;;;20.40;;
26690;SDS011;14307;51.718;8.938;2022-08-07T08:31:33;21.75;;;20.52;;
26690;SDS011;14307;51.718;8.938;2022-08-07T08:34:31;21.75;;;20.65;;
26690;SDS011;14307;51.718;8.938;2022-08-07T08:37:02;21.33;;;20.13;;
26690;SDS011;14307;51.718;8.938;2022-08-07T08:39:52;21.50;;;20.40;;
26690;SDS011;14307;51.718;8.938;2022-08-07T08:45:06;22.35;;;21.20;;
26690;SDS011;14307;51.718;8.938;2022-08-07T08:55:51;22.77;;;21.67;;
26690;SDS011;14307;51.718;8.938;2022-08-07T09:00:56;23.92;;;22.67;;
26690;SDS011;14307;51.718;8.938;2022-08-07T09:06:32;23.83;;;22.52;;
26690;SDS011;14307;51.718;8.938;2022-08-07T09:14:55;24.73;;;23.50;;
26690;SDS011;14307;51.718;8.938;2022-08-07T09:27:08;23.10;;;21.77;;
26690;SDS011;14307;51.718;8.938;2022-08-07T09:35:45;24.80;;;23.27;;
26690;SDS011;14307;51.718;8.938;2022-08-07T09:44:38;26.27;;;24.63;;
26690;SDS011;14307;51.718;8.938;2022-08-07T09:53:26;26.70;;;25.40;;
26690;SDS011;14307;51.718;8.938;2022-08-07T10:05:18;23.83;;;22.63;;
26690;SDS011;14307;51.718;8.938;2022-08-07T10:13:32;23.33;;;22.17;;
26690;SDS011;14307;51.718;8.938;2022-08-07T10:25:12;23.23;;;22.02;;
26690;SDS011;14307;51.718;8.938;2022-08-07T10:37:22;24.27;;;22.98;;
26690;SDS011;14307;51.718;8.938;2022-08-07T10:40:16;26.25;;;24.83;;
26690;SDS011;14307;51.718;8.938;2022-08-07T10:42:57;27.30;;;25.98;;
26690;SDS011;14307;51.718;8.938;2022-08-07T10:46:00;27.05;;;25.50;;
26690;SDS011;14307;51.718;8.938;2022-08-07T10:51:26;27.80;;;26.30;;
26690;SDS011;14307;51.718;8.938;2022-08-07T10:57:33;27.77;;;26.38;;
26690;SDS011;14307;51.718;8.938;2022-08-07T11:00:21;29.52;;;28.02;;
26690;SDS011;14307;51.718;8.938;2022-08-07T11:03:14;25.23;;;23.92;;
26690;SDS011;14307;51.718;8.938;2022-08-07T11:09:02;29.27;;;27.67;;
26690;SDS011;14307;51.718;8.938;2022-08-07T11:11:58;27.33;;;26.00;;
26690;SDS011;14307;51.718;8.938;2022-08-07T11:14:40;25.83;;;24.30;;
26690;SDS011;14307;51.718;8.938;2022-08-07T11:17:29;27.10;;;25.55;;
26690;SDS011;14307;51.718;8.938;2022-08-07T11:20:20;25.00;;;23.60;;
26690;SDS011;14307;51.718;8.938;2022-08-07T11:26:16;27.48;;;26.13;;
26690;SDS011;14307;51.718;8.938;2022-08-07T11:29:03;29.08;;;27.58;;
26690;SDS011;14307;51.718;8.938;2022-08-07T11:32:16;29.65;;;28.05;;
26690;SDS011;14307;51.718;8.938;2022-08-07T11:34:52;28.67;;;27.25;;
26690;SDS011;14307;51.718;8.938;2022-08-07T11:37:48;29.10;;;27.35;;
26690;SDS011;14307;51.718;8.938;2022-08-07T11:43:34;26.95;;;25.65;;
26690;SDS011;14307;51.718;8.938;2022-08-07T11:46:33;27.00;;;25.70;;
26690;SDS011;14307;51.718;8.938;2022-08-07T11:58:06;27.70;;;26.33;;
26690;SDS011;14307;51.718;8.938;2022-08-07T12:01:14;29.58;;;27.92;;
26690;SDS011;14307;51.718;8.938;2022-08-07T12:06:42;28.05;;;26.50;;
26690;SDS011;14307;51.718;8.938;2022-08-07T12:12:30;29.33;;;27.73;;
26690;SDS011;14307;51.718;8.938;2022-08-07T12:18:15;27.40;;;26.05;;
26690;SDS011;14307;51.718;8.938;2022-08-07T12:24:19;29.83;;;28.23;;
26690;SDS011;14307;51.718;8.938;2022-08-07T12:27:10;31.05;;;29.42;;
26690;SDS011;14307;51.718;8.938;2022-08-07T12:29:45;29.83;;;28.08;;
26690;SDS011;14307;51.718;8.938;2022-08-07T12:32:26;29.45;;;28.02;;
26690;SDS011;14307;51.718;8.938;2022-08-07T12:35:06;29.20;;;27.77;;
26690;SDS011;14307;51.718;8.938;2022-08-07T12:37:38;29.25;;;27.85;;
26690;SDS011;14307;51.718;8.938;2022-08-07T12:40:31;26.83;;;25.45;;
26690;SDS011;14307;51.718;8.938;2022-08-07T12:43:19;28.30;;;26.90;;
26690;SDS011;14307;51.718;8.938;2022-08-07T12:49:32;27.52;;;26.00;;
26690;SDS011;14307;51.718;8.938;2022-08-07T12:52:19;28.10;;;26.70;;
26690;SDS011;14307;51.718;8.938;2022-08-07T12:55:08;29.25;;;27.65;;
26690;SDS011;14307;51.718;8.938;2022-08-07T12:57:50;30.20;;;28.70;;
26690;SDS011;14307;51.718;8.938;2022-08-07T13:00:30;25.50;;;24.02;;
26690;SDS011;14307;51.718;8.938;2022-08-07T13:09:00;29.48;;;27.88;;
26690;SDS011;14307;51.718;8.938;2022-08-07T13:20:55;29.98;;;28.48;;
26690;SDS011;14307;51.718;8.938;2022-08-07T13:26:34;30.70;;;29.30;;
26690;SDS011;14307;51.718;8.938;2022-08-07T13:32:03;31.52;;;29.92;;
26690;SDS011;14307;51.718;8.938;2022-08-07T13:35:02;28.55;;;27.05;;
26690;SDS011;14307;51.718;8.938;2022-08-07T13:37:36;30.27;;;28.85;;
26690;SDS011;14307;51.718;8.938;2022-08-07T13:40:29;29.50;;;28.00;;
26690;SDS011;14307;51.718;8.938;2022-08-07T13:43:12;30.63;;;29.02;;
26690;SDS011;14307;51.718;8.938;2022-08-07T13:45:45;29.92;;;28.40;;
26690;SDS011;14307;51.718;8.938;2022-08-07T13:48:37;28.95;;;27.50;;
26690;SDS011;14307;51.718;8.938;2022-08-07T13:51:06;31.23;;;29.58;;
26690;SDS011;14307;51.718;8.938;2022-08-07T13:53:59;29.83;;;28.42;;
26690;SDS011;14307;51.718;8.938;2022-08-07T13:56:42;30.27;;;28.88;;
26690;SDS011;14307;51.718;8.938;2022-08-07T13:59:18;30.50;;;28.85;;
26690;SDS011;14307;51.718;8.938;2022-08-07T14:04:34;32.50;;;31.00;;
26690;SDS011;14307;51.718;8.938;2022-08-07T14:07:25;31.17;;;29.67;;
26690;SDS011;14307;51.718;8.938;2022-08-07T14:09:59;31.08;;;29.67;;
26690;SDS011;14307;51.718;8.938;2022-08-07T14:12:56;32.03;;;30.42;;
26690;SDS011;14307;51.718;8.938;2022-08-07T14:15:38;30.13;;;28.65;;
26690;SDS011;14307;51.718;8.938;2022-08-07T14:18:13;29.95;;;28.48;;
26690;SDS011;14307;51.718;8.938;2022-08-07T14:21:09;30.30;;;28.70;;
26690;SDS011;14307;51.718;8.938;2022-08-07T14:24:07;31.52;;;29.70;;
26690;SDS011;14307;51.718;8.938;2022-08-07T14:26:47;30.48;;;28.88;;
26690;SDS011;14307;51.718;8.938;2022-08-07T14:29:21;29.75;;;28.35;;
26690;SDS011;14307;51.718;8.938;2022-08-07T14:32:12;29.52;;;28.00;;
26690;SDS011;14307;51.718;8.938;2022-08-07T14:34:43;28.10;;;26.80;;
26690;SDS011;14307;51.718;8.938;2022-08-07T14:37:12;29.27;;;27.95;;
26690;SDS011;14307;51.718;8.938;2022-08-07T14:39:43;29.00;;;27.60;;
26690;SDS011;14307;51.718;8.938;2022-08-07T14:42:33;28.55;;;27.25;;
26690;SDS011;14307;51.718;8.938;2022-08-07T14:45:26;27.92;;;26.48;;
26690;SDS011;14307;51.718;8.938;2022-08-07T14:48:17;28.42;;;27.13;;
26690;SDS011;14307;51.718;8.938;2022-08-07T14:50:53;29.92;;;28.42;;
26690;SDS011;14307;51.718;8.938;2022-08-07T14:53:23;29.30;;;27.75;;
26690;SDS011;14307;51.718;8.938;2022-08-07T14:56:13;28.73;;;27.33;;
26690;SDS011;14307;51.718;8.938;2022-08-07T14:59:04;30.15;;;28.73;;
26690;SDS011;14307;51.718;8.938;2022-08-07T15:02:03;30.08;;;28.58;;
26690;SDS011;14307;51.718;8.938;2022-08-07T15:05:00;30.23;;;28.83;;
26690;SDS011;14307;51.718;8.938;2022-08-07T15:07:28;29.45;;;28.05;;
26690;SDS011;14307;51.718;8.938;2022-08-07T15:10:20;29.35;;;27.95;;
26690;SDS011;14307;51.718;8.938;2022-08-07T15:13:15;29.48;;;28.02;;
26690;SDS011;14307;51.718;8.938;2022-08-07T15:15:52;28.75;;;27.13;;
26690;SDS011;14307;51.718;8.938;2022-08-07T15:18:32;27.40;;;26.10;;
26690;SDS011;14307;51.718;8.938;2022-08-07T15:21:10;27.88;;;26.38;;
26690;SDS011;14307;51.718;8.938;2022-08-07T15:24:06;28.15;;;26.85;;
26690;SDS011;14307;51.718;8.938;2022-08-07T15:29:39;27.35;;;25.95;;
26690;SDS011;14307;51.718;8.938;2022-08-07T15:32:27;27.20;;;25.90;;
26690;SDS011;14307;51.718;8.938;2022-08-07T15:35:05;27.40;;;26.00;;
26690;SDS011;14307;51.718;8.938;2022-08-07T15:37:42;27.00;;;25.63;;
26690;SDS011;14307;51.718;8.938;2022-08-07T15:40:35;27.33;;;26.02;;
26690;SDS011;14307;51.718;8.938;2022-08-07T15:43:23;27.55;;;26.05;;
26690;SDS011;14307;51.718;8.938;2022-08-07T15:46:14;28.13;;;26.63;;
26690;SDS011;14307;51.718;8.938;2022-08-07T15:49:07;27.83;;;26.33;;
26690;SDS011;14307;51.718;8.938;2022-08-07T15:51:57;26.75;;;25.30;;
26690;SDS011;14307;51.718;8.938;2022-08-07T15:54:31;27.42;;;25.58;;
26690;SDS011;14307;51.718;8.938;2022-08-07T15:57:05;27.52;;;26.17;;
26690;SDS011;14307;51.718;8.938;2022-08-07T15:59:56;26.98;;;25.52;;
26690;SDS011;14307;51.718;8.938;2022-08-07T16:02:30;26.63;;;25.23;;
26690;SDS011;14307;51.718;8.938;2022-08-07T16:05:05;26.92;;;25.42;;
26690;SDS011;14307;51.718;8.938;2022-08-07T16:07:41;26.98;;;25.58;;
26690;SDS011;14307;51.718;8.938;2022-08-07T16:10:34;26.52;;;25.13;;
26690;SDS011;14307;51.718;8.938;2022-08-07T16:35:06;29.50;;;28.00;;
26690;SDS011;14307;51.718;8.938;2022-08-07T16:43:12;29.00;;;27.40;;
26690;SDS011;14307;51.718;8.938;2022-08-07T16:55:41;27.42;;;25.80;;
26690;SDS011;14307;51.718;8.938;2022-08-07T16:58:28;27.33;;;25.83;;
26690;SDS011;14307;51.718;8.938;2022-08-07T17:01:40;26.05;;;24.55;;
26690;SDS011;14307;51.718;8.938;2022-08-07T17:07:54;26.50;;;25.00;;
26690;SDS011;14307;51.718;8.938;2022-08-07T17:19:25;28.30;;;26.90;;
26690;SDS011;14307;51.718;8.938;2022-08-07T17:22:31;27.98;;;26.65;;
26690;SDS011;14307;51.718;8.938;2022-08-07T17:25:23;28.60;;;27.10;;
26690;SDS011;14307;51.718;8.938;2022-08-07T17:28:22;30.73;;;29.33;;
26690;SDS011;14307;51.718;8.938;2022-08-07T17:33:46;33.10;;;31.27;;
26690;SDS011;14307;51.718;8.938;2022-08-07T17:36:38;34.15;;;32.45;;
26690;SDS011;14307;51.718;8.938;2022-08-07T17:39:29;33.70;;;32.20;;
26690;SDS011;14307;51.718;8.938;2022-08-07T17:45:25;27.77;;;26.30;;
26690;SDS011;14307;51.718;8.938;2022-08-07T17:48:01;27.42;;;26.08;;
26690;SDS011;14307;51.718;8.938;2022-08-07T17:56:33;28.75;;;27.25;;
26690;SDS011;14307;51.718;8.938;2022-08-07T17:59:19;28.35;;;26.75;;
26690;SDS011;14307;51.718;8.938;2022-08-07T18:02:09;26.88;;;25.38;;
26690;SDS011;14307;51.718;8.938;2022-08-07T18:04:59;28.42;;;26.73;;
26690;SDS011;14307;51.718;8.938;2022-08-07T18:16:53;31.27;;;29.45;;
26690;SDS011;14307;51.718;8.938;2022-08-07T18:19:43;29.58;;;28.08;;
26690;SDS011;14307;51.718;8.938;2022-08-07T18:22:43;28.20;;;26.83;;
26690;SDS011;14307;51.718;8.938;2022-08-07T18:25:30;27.35;;;25.95;;
26690;SDS011;14307;51.718;8.938;2022-08-07T18:28:20;27.70;;;26.20;;
26690;SDS011;14307;51.718;8.938;2022-08-07T18:31:06;26.35;;;24.98;;
26690;SDS011;14307;51.718;8.938;2022-08-07T18:36:58;26.95;;;25.42;;
26690;SDS011;14307;51.718;8.938;2022-08-07T18:47:13;27.02;;;25.65;;
26690;SDS011;14307;51.718;8.938;2022-08-07T18:52:37;26.90;;;25.17;;
26690;SDS011;14307;51.718;8.938;2022-08-07T18:58:28;26.20;;;24.80;;
26690;SDS011;14307;51.718;8.938;2022-08-07T19:04:18;21.80;;;20.52;;
26690;SDS011;14307;51.718;8.938;2022-08-07T19:07:30;22.10;;;20.80;;
26690;SDS011;14307;51.718;8.938;2022-08-07T19:10:17;22.52;;;21.13;;
26690;SDS011;14307;51.718;8.938;2022-08-07T19:13:02;22.75;;;21.15;;
26690;SDS011;14307;51.718;8.938;2022-08-07T19:15:39;23.02;;;21.42;;
26690;SDS011;14307;51.718;8.938;2022-08-07T19:18:39;23.33;;;21.92;;
26690;SDS011;14307;51.718;8.938;2022-08-07T19:24:23;24.05;;;22.42;;
26690;SDS011;14307;51.718;8.938;2022-08-07T19:29:48;24.02;;;22.38;;
26690;SDS011;14307;51.718;8.938;2022-08-07T19:32:47;29.58;;;27.90;;
26690;SDS011;14307;51.718;8.938;2022-08-07T19:35:25;23.05;;;21.65;;
26690;SDS011;14307;51.718;8.938;2022-08-07T19:38:00;23.15;;;21.75;;
26690;SDS011;14307;51.718;8.938;2022-08-07T19:40:42;24.08;;;22.58;;
26690;SDS011;14307;51.718;8.938;2022-08-07T19:43:26;28.10;;;26.57;;
26690;SDS011;14307;51.718;8.938;2022-08-07T19:46:15;22.60;;;21.13;;
26690;SDS011;14307;51.718;8.938;2022-08-07T19:51:35;23.83;;;22.38;;
26690;SDS011;14307;51.718;8.938;2022-08-07T19:54:23;23.88;;;22.52;;
26690;SDS011;14307;51.718;8.938;2022-08-07T19:57:10;23.63;;;22.15;;
26690;SDS011;14307;51.718;8.938;2022-08-07T20:00:02;23.70;;;22.30;;
26690;SDS011;14307;51.718;8.938;2022-08-07T20:02:46;24.65;;;23.15;;
26690;SDS011;14307;51.718;8.938;2022-08-07T20:05:21;22.67;;;21.38;;